createdAt,value
2022-11-05T00:00:17.868Z,3.00
2022-11-05T00:03:03.381Z,3.88
2022-11-05T00:05:49.373Z,2.80
2022-11-05T00:08:34.900Z,3.03
2022-11-05T00:11:02.893Z,3.25
2022-11-05T00:13:48.205Z,3.95
2022-11-05T00:16:37.255Z,3.60
2022-11-05T00:19:07.785Z,3.55
2022-11-05T00:21:54.823Z,3.50
2022-11-05T00:24:40.258Z,2.95
2022-11-05T00:27:08.728Z,3.10
2022-11-05T00:29:36.602Z,3.40
2022-11-05T00:32:06.098Z,3.15
2022-11-05T00:34:33.929Z,3.47
2022-11-05T00:37:01.733Z,3.65
2022-11-05T00:39:30.257Z,3.65
2022-11-05T00:42:11.944Z,3.85
2022-11-05T00:44:57.044Z,4.30
2022-11-05T00:47:43.712Z,3.95
2022-11-05T00:50:11.805Z,3.80
2022-11-05T00:52:59.855Z,3.60
2022-11-05T00:55:30.804Z,3.45
2022-11-05T00:57:59.017Z,3.58
2022-11-05T01:00:29.351Z,3.70
2022-11-05T01:03:00.881Z,3.72
2022-11-05T01:05:29.262Z,3.50
2022-11-05T01:07:57.729Z,5.13
2022-11-05T01:10:25.680Z,3.38
2022-11-05T01:12:53.912Z,3.40
2022-11-05T01:15:22.150Z,3.40
2022-11-05T01:17:51.098Z,3.45
2022-11-05T01:20:20.553Z,4.15
2022-11-05T01:22:48.315Z,3.67
2022-11-05T01:25:16.258Z,3.53
2022-11-05T01:27:44.052Z,3.90
2022-11-05T01:30:13.219Z,3.63
2022-11-05T01:32:41.080Z,3.42
2022-11-05T01:35:13.252Z,3.40
2022-11-05T01:37:42.752Z,3.65
2022-11-05T01:40:13.365Z,3.00
2022-11-05T01:42:41.109Z,4.10
2022-11-05T01:45:16.447Z,3.30
2022-11-05T01:48:02.300Z,3.47
2022-11-05T01:50:42.208Z,3.28
2022-11-05T01:53:17.943Z,3.28
2022-11-05T01:55:50.553Z,3.70
2022-11-05T01:58:21.429Z,4.40
2022-11-05T02:00:49.389Z,3.60
2022-11-05T02:03:18.868Z,3.50
2022-11-05T02:05:48.653Z,3.92
2022-11-05T02:08:26.792Z,4.15
2022-11-05T02:10:54.801Z,3.50
2022-11-05T02:13:22.570Z,4.30
2022-11-05T02:16:00.536Z,3.28
2022-11-05T02:18:38.757Z,3.80
2022-11-05T02:21:28.971Z,2.75
2022-11-05T02:24:32.742Z,3.13
2022-11-05T02:27:15.548Z,3.50
2022-11-05T02:30:08.276Z,3.38
2022-11-05T02:32:59.233Z,4.60
2022-11-05T02:36:00.602Z,3.10
2022-11-05T02:38:37.108Z,3.15
2022-11-05T02:41:09.372Z,2.80
2022-11-05T02:43:48.053Z,3.13
2022-11-05T02:46:29.755Z,2.80
2022-11-05T02:49:10.328Z,3.63
2022-11-05T02:51:44.852Z,2.83
2022-11-05T02:54:18.237Z,3.30
2022-11-05T02:56:49.133Z,3.60
2022-11-05T02:59:16.943Z,4.68
2022-11-05T03:01:47.687Z,3.08
2022-11-05T03:04:20.690Z,3.88
2022-11-05T03:07:15.219Z,3.50
2022-11-05T03:10:03.569Z,4.25
2022-11-05T03:12:40.593Z,3.60
2022-11-05T03:15:18.833Z,4.00
2022-11-05T03:17:56.834Z,4.28
2022-11-05T03:20:32.065Z,4.20
2022-11-05T03:23:06.265Z,3.90
2022-11-05T03:25:40.478Z,3.95
2022-11-05T03:28:11.710Z,3.60
2022-11-05T03:30:41.026Z,4.82
2022-11-05T03:33:14.444Z,3.67
2022-11-05T03:35:48.037Z,3.50
2022-11-05T03:38:22.805Z,4.43
2022-11-05T03:40:54.185Z,3.67
2022-11-05T03:43:25.249Z,4.50
2022-11-05T03:46:00.040Z,4.20
2022-11-05T03:48:31.201Z,7.05
2022-11-05T03:51:09.514Z,4.40
2022-11-05T03:53:43.212Z,4.75
2022-11-05T03:56:18.118Z,5.40
2022-11-05T03:58:48.391Z,4.30
2022-11-05T04:01:16.772Z,4.00
2022-11-05T04:03:44.640Z,5.50
2022-11-05T04:06:31.509Z,4.38
2022-11-05T04:09:16.910Z,4.50
2022-11-05T04:12:02.389Z,4.38
2022-11-05T04:14:31.299Z,4.30
2022-11-05T04:17:07.228Z,4.50
2022-11-05T04:19:52.941Z,4.85
2022-11-05T04:22:39.411Z,4.20
2022-11-05T04:25:07.521Z,4.40
2022-11-05T04:27:35.618Z,4.65
2022-11-05T04:30:21.667Z,4.80
2022-11-05T04:33:01.194Z,5.95
2022-11-05T04:35:29.751Z,7.00
2022-11-05T04:37:58.981Z,5.65
2022-11-05T04:40:27.167Z,5.83
2022-11-05T04:42:55.937Z,7.10
2022-11-05T04:45:24.270Z,6.03
2022-11-05T04:47:52.140Z,6.20
2022-11-05T04:50:19.910Z,6.28
2022-11-05T04:52:47.675Z,6.23
2022-11-05T04:55:16.793Z,6.78
2022-11-05T04:57:44.766Z,6.45
2022-11-05T05:00:12.834Z,6.13
2022-11-05T05:02:40.605Z,6.78
2022-11-05T05:05:08.680Z,6.10
2022-11-05T05:07:36.670Z,6.40
2022-11-05T05:10:06.477Z,5.85
2022-11-05T05:12:35.735Z,5.75
2022-11-05T05:15:03.812Z,6.88
2022-11-05T05:17:31.684Z,6.80
2022-11-05T05:20:16.827Z,6.78
2022-11-05T05:22:44.609Z,6.28
2022-11-05T05:25:12.387Z,8.00
2022-11-05T05:27:41.533Z,6.85
2022-11-05T05:30:10.896Z,7.18
2022-11-05T05:32:38.777Z,7.10
2022-11-05T05:35:07.356Z,6.82
2022-11-05T05:37:35.096Z,6.95
2022-11-05T05:40:03.092Z,7.10
2022-11-05T05:42:30.890Z,7.03
2022-11-05T05:45:00.033Z,7.00
2022-11-05T05:47:27.820Z,8.35
2022-11-05T05:49:55.605Z,7.82
2022-11-05T05:52:23.414Z,7.95
2022-11-05T05:54:51.205Z,8.10
2022-11-05T05:57:19.020Z,7.80
2022-11-05T05:59:46.798Z,8.02
2022-11-05T06:02:16.136Z,8.57
2022-11-05T06:04:44.171Z,9.02
2022-11-05T06:07:11.946Z,9.45
2022-11-05T06:09:39.730Z,9.77
2022-11-05T06:12:08.014Z,8.23
2022-11-05T06:14:35.803Z,9.98
2022-11-05T06:17:03.597Z,9.18
2022-11-05T06:19:32.769Z,9.35
2022-11-05T06:22:00.501Z,9.93
2022-11-05T06:24:28.254Z,9.20
2022-11-05T06:26:56.028Z,10.30
2022-11-05T06:29:23.783Z,9.97
2022-11-05T06:31:51.558Z,9.85
2022-11-05T06:34:19.326Z,9.95
2022-11-05T06:36:48.407Z,10.35
2022-11-05T06:39:16.182Z,9.87
2022-11-05T06:42:11.867Z,10.45
2022-11-05T06:44:32.535Z,10.00
2022-11-05T06:47:00.779Z,11.10
2022-11-05T06:49:28.560Z,10.13
2022-11-05T06:51:59.144Z,10.10
2022-11-05T06:54:26.928Z,10.18
2022-11-05T06:56:55.613Z,10.15
2022-11-05T06:59:23.396Z,9.93
2022-11-05T07:01:51.249Z,10.05
2022-11-05T07:04:19.118Z,10.02
2022-11-05T07:06:46.933Z,10.15
2022-11-05T07:09:16.405Z,10.32
2022-11-05T07:11:44.182Z,9.73
2022-11-05T07:14:12.052Z,9.80
2022-11-05T07:16:39.885Z,9.80
2022-11-05T07:19:07.652Z,9.43
2022-11-05T07:21:35.444Z,10.20
2022-11-05T07:24:03.453Z,9.93
2022-11-05T07:26:34.666Z,9.65
2022-11-05T07:29:02.782Z,9.80
2022-11-05T07:31:30.716Z,9.70
2022-11-05T07:33:59.134Z,9.65
2022-11-05T07:36:26.985Z,10.07
2022-11-05T07:38:59.064Z,10.30
2022-11-05T07:41:28.512Z,9.82
2022-11-05T07:43:57.672Z,9.98
2022-11-05T07:46:25.483Z,10.02
2022-11-05T07:48:53.266Z,10.05
2022-11-05T07:51:21.098Z,10.77
2022-11-05T07:53:49.069Z,9.85
2022-11-05T07:56:17.190Z,9.90
2022-11-05T07:58:44.984Z,10.20
2022-11-05T08:01:14.276Z,10.00
2022-11-05T08:03:42.290Z,10.50
2022-11-05T08:06:10.195Z,10.00
2022-11-05T08:08:38.149Z,10.32
2022-11-05T08:11:07.109Z,10.40
2022-11-05T08:13:35.387Z,10.87
2022-11-05T08:16:03.764Z,10.93
2022-11-05T08:18:34.087Z,10.65
2022-11-05T08:21:05.134Z,10.65
2022-11-05T08:23:33.352Z,11.10
2022-11-05T08:26:04.663Z,11.07
2022-11-05T08:28:32.527Z,11.70
2022-11-05T08:31:00.474Z,10.93
2022-11-05T08:33:31.153Z,10.27
2022-11-05T08:36:04.244Z,10.90
2022-11-05T08:38:32.884Z,10.75
2022-11-05T08:41:00.788Z,10.73
2022-11-05T08:43:28.577Z,11.15
2022-11-05T08:45:56.763Z,11.30
2022-11-05T08:48:24.673Z,10.25
2022-11-05T08:50:52.572Z,11.15
2022-11-05T08:53:21.797Z,11.07
2022-11-05T08:55:51.414Z,10.63
2022-11-05T08:58:20.568Z,10.60
2022-11-05T09:00:50.554Z,10.50
2022-11-05T09:03:18.666Z,11.35
2022-11-05T09:05:55.689Z,10.63
2022-11-05T09:08:33.712Z,11.15
2022-11-05T09:11:03.346Z,11.65
2022-11-05T09:13:31.281Z,11.85
2022-11-05T09:16:07.463Z,11.03
2022-11-05T09:18:35.693Z,11.20
2022-11-05T09:21:07.284Z,10.93
2022-11-05T09:23:36.592Z,10.40
2022-11-05T09:26:04.498Z,10.73
2022-11-05T09:28:33.116Z,10.00
2022-11-05T09:31:01.267Z,9.07
2022-11-05T09:33:29.098Z,7.15
2022-11-05T09:36:01.082Z,6.78
2022-11-05T09:38:29.138Z,7.25
2022-11-05T09:41:02.327Z,7.20
2022-11-05T09:43:35.917Z,7.15
2022-11-05T09:46:10.368Z,6.60
2022-11-05T09:48:40.242Z,5.97
2022-11-05T09:51:08.377Z,4.80
2022-11-05T09:53:40.881Z,3.97
2022-11-05T09:56:20.939Z,3.70
2022-11-05T09:58:52.753Z,3.90
2022-11-05T10:01:25.106Z,3.80
2022-11-05T10:03:56.896Z,3.63
2022-11-05T10:06:26.405Z,4.00
2022-11-05T10:09:01.097Z,4.20
2022-11-05T10:11:34.700Z,3.50
2022-11-05T10:14:08.417Z,5.40
2022-11-05T10:16:40.434Z,4.22
2022-11-05T10:19:11.141Z,4.70
2022-11-05T10:22:04.977Z,4.35
2022-11-05T10:24:26.724Z,4.35
2022-11-05T10:26:56.741Z,5.18
2022-11-05T10:29:29.297Z,4.63
2022-11-05T10:31:58.458Z,5.95
2022-11-05T10:34:34.051Z,4.30
2022-11-05T10:37:02.298Z,4.55
2022-11-05T10:39:32.736Z,4.38
2022-11-05T10:42:24.957Z,4.63
2022-11-05T10:45:09.999Z,4.38
2022-11-05T10:47:53.419Z,4.18
2022-11-05T10:50:25.678Z,7.00
2022-11-05T10:53:03.750Z,4.47
2022-11-05T10:55:40.202Z,4.07
2022-11-05T10:58:27.145Z,4.07
2022-11-05T11:01:08.294Z,4.30
2022-11-05T11:03:43.358Z,4.18
2022-11-05T11:06:22.702Z,4.20
2022-11-05T11:08:55.062Z,3.85
2022-11-05T11:11:29.059Z,3.92
2022-11-05T11:14:04.390Z,3.97
2022-11-05T11:16:37.484Z,3.97
2022-11-05T11:19:21.789Z,3.70
2022-11-05T11:22:17.586Z,3.92
2022-11-05T11:24:49.959Z,3.20
2022-11-05T11:27:22.563Z,3.22
2022-11-05T11:29:57.896Z,3.10
2022-11-05T11:32:29.020Z,3.15
2022-11-05T11:34:58.400Z,2.80
2022-11-05T11:37:29.463Z,3.08
2022-11-05T11:40:01.072Z,3.15
2022-11-05T11:42:32.522Z,2.92
2022-11-05T11:45:06.888Z,3.20
2022-11-05T11:47:35.133Z,2.70
2022-11-05T11:50:03.629Z,3.13
2022-11-05T11:52:33.069Z,2.72
2022-11-05T11:55:27.751Z,3.17
2022-11-05T11:58:06.970Z,3.03
2022-11-05T12:00:43.656Z,2.97
2022-11-05T12:03:25.483Z,2.90
2022-11-05T12:06:01.651Z,2.97
2022-11-05T12:08:45.535Z,3.05
2022-11-05T12:11:20.630Z,3.58
2022-11-05T12:14:05.462Z,9.30
2022-11-05T12:17:09.211Z,3.72
2022-11-05T12:20:12.593Z,3.97
2022-11-05T12:22:59.508Z,3.90
2022-11-05T12:25:33.576Z,4.22
2022-11-05T12:28:18.881Z,4.55
2022-11-05T12:30:55.165Z,4.00
2022-11-05T12:33:44.582Z,4.95
2022-11-05T12:36:34.076Z,4.50
2022-11-05T12:39:20.146Z,4.28
2022-11-05T12:41:56.240Z,4.32
2022-11-05T12:44:51.128Z,4.18
2022-11-05T12:47:34.961Z,4.20
2022-11-05T12:50:16.663Z,4.63
2022-11-05T12:53:17.306Z,4.57
2022-11-05T12:55:49.369Z,4.07
2022-11-05T12:58:22.512Z,4.05
2022-11-05T13:00:55.675Z,3.28
2022-11-05T13:03:31.699Z,3.72
2022-11-05T13:06:06.056Z,3.67
2022-11-05T13:08:42.110Z,3.22
2022-11-05T13:11:20.804Z,3.58
2022-11-05T13:13:59.401Z,3.72
2022-11-05T13:16:33.533Z,3.78
2022-11-05T13:19:08.113Z,3.90
2022-11-05T13:21:37.141Z,3.92
2022-11-05T13:24:14.100Z,4.07
2022-11-05T13:26:52.114Z,3.92
2022-11-05T13:29:24.145Z,4.03
2022-11-05T13:31:55.297Z,3.53
2022-11-05T13:34:23.323Z,3.53
2022-11-05T13:37:14.191Z,4.17
2022-11-05T13:39:50.216Z,3.20
2022-11-05T13:42:49.021Z,3.10
2022-11-05T13:45:39.563Z,2.90
2022-11-05T13:48:40.910Z,2.80
2022-11-05T13:51:51.084Z,2.70
2022-11-05T13:54:49.636Z,2.80
2022-11-05T13:57:37.796Z,2.90
2022-11-05T14:00:12.469Z,2.70
2022-11-05T14:02:43.945Z,2.92
2022-11-05T14:05:24.224Z,2.90
2022-11-05T14:07:53.153Z,2.85
2022-11-05T14:10:29.764Z,2.42
2022-11-05T14:13:02.533Z,2.60
2022-11-05T14:15:33.006Z,2.85
2022-11-05T14:18:03.153Z,2.35
2022-11-05T14:20:58.458Z,2.30
2022-11-05T14:23:51.862Z,2.25
2022-11-05T14:26:25.545Z,2.33
2022-11-05T14:29:28.778Z,2.20
2022-11-05T14:32:09.293Z,2.20
2022-11-05T14:34:47.357Z,2.30
2022-11-05T14:37:27.830Z,2.30
2022-11-05T14:39:56.597Z,2.38
2022-11-05T14:42:27.372Z,2.15
2022-11-05T14:45:01.765Z,2.60
2022-11-05T14:47:33.894Z,2.50
2022-11-05T14:50:11.421Z,2.28
2022-11-05T14:52:40.916Z,3.35
2022-11-05T14:55:27.220Z,3.22
2022-11-05T14:58:27.150Z,3.78
2022-11-05T15:00:55.882Z,3.00
2022-11-05T15:04:01.293Z,3.53
2022-11-05T15:06:32.148Z,3.40
2022-11-05T15:09:13.414Z,3.25
2022-11-05T15:11:46.577Z,3.10
2022-11-05T15:14:22.264Z,3.57
2022-11-05T15:16:53.139Z,3.92
2022-11-05T15:19:27.963Z,4.15
2022-11-05T15:21:59.759Z,5.18
2022-11-05T15:24:29.027Z,5.03
2022-11-05T15:27:05.193Z,4.20
2022-11-05T15:29:35.058Z,4.85
2022-11-05T15:32:03.408Z,4.80
2022-11-05T15:34:35.498Z,5.47
2022-11-05T15:37:05.144Z,5.32
2022-11-05T15:39:39.629Z,5.57
2022-11-05T15:42:13.778Z,5.85
2022-11-05T15:44:44.381Z,5.30
2022-11-05T15:47:19.313Z,5.95
2022-11-05T15:49:50.972Z,6.47
2022-11-05T15:52:20.907Z,6.75
2022-11-05T15:55:08.504Z,6.70
2022-11-05T15:57:40.328Z,7.15
2022-11-05T16:00:16.653Z,7.53
2022-11-05T16:02:50.473Z,8.20
2022-11-05T16:05:20.230Z,7.88
2022-11-05T16:07:49.176Z,7.35
2022-11-05T16:10:21.742Z,8.47
2022-11-05T16:12:49.561Z,8.33
2022-11-05T16:15:23.784Z,8.48
2022-11-05T16:17:54.611Z,8.27
2022-11-05T16:20:28.428Z,8.73
2022-11-05T16:22:58.009Z,8.80
2022-11-05T16:25:36.478Z,9.45
2022-11-05T16:28:05.731Z,9.97
2022-11-05T16:30:33.570Z,10.43
2022-11-05T16:33:07.293Z,10.35
2022-11-05T16:35:46.818Z,11.17
2022-11-05T16:38:14.901Z,11.73
2022-11-05T16:40:42.864Z,12.18
2022-11-05T16:43:18.709Z,12.18
2022-11-05T16:45:46.531Z,11.03
2022-11-05T16:48:15.662Z,9.73
2022-11-05T16:50:45.930Z,9.00
2022-11-05T16:53:13.974Z,8.05
2022-11-05T16:55:43.838Z,9.02
2022-11-05T16:58:21.401Z,9.15
2022-11-05T17:00:50.244Z,8.95
2022-11-05T17:03:18.138Z,8.73
2022-11-05T17:05:47.612Z,8.40
2022-11-05T17:08:15.731Z,8.55
2022-11-05T17:10:43.860Z,9.07
2022-11-05T17:13:15.715Z,9.30
2022-11-05T17:15:44.893Z,9.45
2022-11-05T17:18:18.248Z,9.23
2022-11-05T17:20:49.774Z,9.20
2022-11-05T17:23:19.475Z,9.23
2022-11-05T17:25:49.224Z,8.88
2022-11-05T17:28:17.657Z,9.50
2022-11-05T17:30:52.293Z,9.45
2022-11-05T17:33:22.590Z,9.45
2022-11-05T17:35:53.118Z,9.70
2022-11-05T17:38:21.783Z,10.38
2022-11-05T17:40:49.710Z,9.95
2022-11-05T17:43:17.642Z,9.55
2022-11-05T17:45:47.724Z,9.63
2022-11-05T17:48:15.894Z,10.02
2022-11-05T17:50:45.059Z,10.25
2022-11-05T17:53:15.412Z,10.15
2022-11-05T17:55:44.781Z,10.10
2022-11-05T17:58:13.425Z,10.45
2022-11-05T18:00:42.432Z,10.35
2022-11-05T18:03:11.532Z,10.68
2022-11-05T18:05:40.174Z,10.77
2022-11-05T18:08:09.065Z,10.50
2022-11-05T18:10:39.719Z,10.57
2022-11-05T18:13:08.034Z,11.27
2022-11-05T18:15:37.928Z,11.45
2022-11-05T18:18:05.753Z,10.88
2022-11-05T18:20:34.026Z,10.93
2022-11-05T18:23:02.155Z,11.13
2022-11-05T18:25:30.041Z,11.23
2022-11-05T18:27:59.149Z,11.45
2022-11-05T18:30:27.038Z,11.10
2022-11-05T18:32:54.946Z,11.00
2022-11-05T18:35:22.779Z,10.63
2022-11-05T18:37:50.753Z,11.18
2022-11-05T18:40:18.570Z,12.02
2022-11-05T18:42:46.319Z,10.45
2022-11-05T18:45:15.492Z,10.90
2022-11-05T18:47:43.277Z,10.80
2022-11-05T18:50:11.344Z,10.88
2022-11-05T18:52:39.145Z,11.35
2022-11-05T18:55:08.298Z,12.07
2022-11-05T18:57:36.132Z,12.18
2022-11-05T19:00:04.959Z,11.93
2022-11-05T19:02:34.340Z,11.03
2022-11-05T19:07:50.183Z,12.27
2022-11-05T19:10:18.409Z,12.32
2022-11-05T19:12:46.222Z,11.80
2022-11-05T19:15:14.144Z,13.10
2022-11-05T19:17:43.302Z,13.02
2022-11-05T19:20:12.330Z,13.07
2022-11-05T19:22:40.219Z,13.23
2022-11-05T19:25:08.994Z,13.93
2022-11-05T19:27:37.520Z,13.07
2022-11-05T19:30:06.713Z,13.02
2022-11-05T19:32:34.481Z,12.63
2022-11-05T19:35:03.694Z,12.63
2022-11-05T19:37:31.456Z,12.75
2022-11-05T19:39:59.246Z,12.27
2022-11-05T19:42:27.875Z,12.95
2022-11-05T19:44:55.775Z,12.82
2022-11-05T19:47:23.534Z,12.98
2022-11-05T19:49:51.313Z,12.32
2022-11-05T19:52:20.565Z,12.63
2022-11-05T19:54:48.352Z,11.80
2022-11-05T19:57:16.142Z,11.80
2022-11-05T19:59:43.965Z,12.10
2022-11-05T20:02:16.075Z,11.70
2022-11-05T20:04:44.449Z,11.90
2022-11-05T20:07:12.545Z,11.88
2022-11-05T20:09:41.692Z,10.80
2022-11-05T20:12:09.498Z,11.32
2022-11-05T20:14:37.524Z,11.60
2022-11-05T20:17:05.298Z,11.40
2022-11-05T20:19:33.647Z,11.32
2022-11-05T20:22:01.750Z,11.57
2022-11-05T20:24:29.653Z,11.90
2022-11-05T20:26:59.060Z,11.98
2022-11-05T20:29:33.865Z,11.60
2022-11-05T20:32:03.448Z,11.32
2022-11-05T20:34:32.142Z,11.60
2022-11-05T20:36:59.921Z,12.13
2022-11-05T20:39:27.913Z,11.95
2022-11-05T20:41:56.689Z,11.37
2022-11-05T20:44:25.929Z,10.98
2022-11-05T20:46:53.805Z,11.88
2022-11-05T20:49:25.396Z,11.05
2022-11-05T20:51:53.788Z,12.50
2022-11-05T20:54:21.579Z,13.13
2022-11-05T20:56:49.373Z,11.98
2022-11-05T20:59:17.170Z,12.48
2022-11-05T21:01:46.518Z,11.43
2022-11-05T21:04:14.435Z,11.45
2022-11-05T21:06:42.219Z,12.30
2022-11-05T21:09:10.070Z,11.77
2022-11-05T21:11:51.798Z,11.75
2022-11-05T21:14:19.576Z,11.68
2022-11-05T21:16:48.693Z,13.88
2022-11-05T21:19:16.497Z,14.20
2022-11-05T21:21:44.307Z,14.85
2022-11-05T21:24:12.100Z,14.13
2022-11-05T21:26:39.875Z,13.52
2022-11-05T21:29:08.332Z,13.35
2022-11-05T21:31:37.241Z,17.77
2022-11-05T21:34:06.354Z,14.18
2022-11-05T21:36:34.796Z,14.63
2022-11-05T21:39:02.835Z,11.87
2022-11-05T21:41:30.824Z,13.15
2022-11-05T21:43:58.675Z,14.05
2022-11-05T21:46:26.533Z,13.40
2022-11-05T21:48:54.293Z,13.95
2022-11-05T21:51:41.604Z,14.00
2022-11-05T21:54:28.579Z,12.57
2022-11-05T21:57:13.981Z,14.03
2022-11-05T21:59:51.939Z,14.02
2022-11-05T22:02:22.020Z,14.35
2022-11-05T22:04:52.739Z,13.73
2022-11-05T22:07:24.709Z,13.73
2022-11-05T22:09:52.608Z,13.18
2022-11-05T22:12:20.798Z,13.63
2022-11-05T22:14:48.592Z,14.18
2022-11-05T22:17:16.715Z,13.20
2022-11-05T22:19:44.610Z,13.05
2022-11-05T22:22:12.749Z,13.13
2022-11-05T22:24:42.303Z,13.35
2022-11-05T22:27:13.498Z,13.10
2022-11-05T22:29:41.310Z,12.55
2022-11-05T22:32:10.488Z,13.48
2022-11-05T22:34:38.578Z,13.48
2022-11-05T22:37:06.650Z,13.20
2022-11-05T22:39:34.514Z,13.02
2022-11-05T22:42:08.316Z,13.43
2022-11-05T22:44:37.427Z,12.82
2022-11-05T22:47:05.571Z,13.20
2022-11-05T22:49:33.969Z,11.57
2022-11-05T22:52:01.847Z,13.43
2022-11-05T22:54:32.722Z,13.57
2022-11-05T22:57:04.475Z,13.48
2022-11-05T22:59:32.243Z,12.05
2022-11-05T23:02:03.908Z,13.90
2022-11-05T23:04:34.444Z,14.00
2022-11-05T23:07:24.597Z,13.30
2022-11-05T23:10:12.590Z,13.93
2022-11-05T23:12:43.013Z,14.63
2022-11-05T23:15:31.709Z,16.33
2022-11-05T23:18:17.139Z,14.85
2022-11-05T23:21:02.560Z,15.80
2022-11-05T23:23:47.998Z,14.47
2022-11-05T23:26:33.392Z,15.17
2022-11-05T23:29:02.479Z,14.88
2022-11-05T23:31:47.694Z,15.93
2022-11-05T23:34:15.509Z,16.45
2022-11-05T23:37:06.324Z,16.02
2022-11-05T23:39:39.797Z,14.57
2022-11-05T23:42:28.705Z,13.73
2022-11-05T23:45:15.542Z,14.55
2022-11-05T23:48:02.008Z,15.50
2022-11-05T23:50:35.647Z,16.30
2022-11-05T23:53:07.854Z,15.57
2022-11-05T23:55:36.231Z,16.40
2022-11-05T23:58:04.295Z,16.75
